Time;durP1;ratioP1;P1;durP2;ratioP2;P2;SDS_P1;SDS_P2;PMS_P1;PMS_P2;Temp;Humidity;BMP_temperature;BMP_pressure;BME280_temperature;BME280_humidity;BME280_pressure;Samples;Min_cycle;Max_cycle;Signal;HPM_P1;HPM_P2
2023/08/31 00:01:11;;;;;;;1.97;1.77;;;21.40;99.90;;;;;;5024216;28;20458;-50
2023/08/31 00:03:38;;;;;;;2.03;1.83;;;21.40;99.90;;;;;;5028132;28;20466;-51
2023/08/31 00:06:08;;;;;;;2.35;2.13;;;21.40;99.90;;;;;;5025651;28;20202;-52
2023/08/31 00:08:35;;;;;;;2.07;1.80;;;21.40;99.90;;;;;;5027370;28;20218;-55
2023/08/31 00:11:02;;;;;;;2.07;1.90;;;21.40;99.90;;;;;;5031298;28;20469;-53
2023/08/31 00:13:30;;;;;;;1.77;1.67;;;21.40;99.90;;;;;;5030986;28;20551;-53
2023/08/31 00:15:58;;;;;;;1.85;1.60;;;21.40;99.90;;;;;;5025185;28;20969;-50
2023/08/31 00:18:25;;;;;;;2.28;2.08;;;21.40;99.90;;;;;;5027635;28;20229;-51
2023/08/31 00:20:51;;;;;;;1.90;1.80;;;21.40;99.90;;;;;;5024444;28;20242;-51
2023/08/31 00:23:19;;;;;;;2.23;2.03;;;21.40;99.90;;;;;;5025646;28;20207;-51
2023/08/31 00:25:48;;;;;;;1.80;1.70;;;21.40;99.90;;;;;;5031009;28;21089;-50
2023/08/31 00:28:15;;;;;;;1.87;1.77;;;21.40;99.90;;;;;;5029936;28;20499;-52
2023/08/31 00:30:44;;;;;;;2.57;2.37;;;21.40;99.90;;;;;;5029136;28;20461;-52
2023/08/31 00:33:11;;;;;;;2.23;2.03;;;21.40;99.90;;;;;;5031613;28;20524;-54
2023/08/31 00:35:43;;;;;;;2.10;1.97;;;21.40;99.90;;;;;;5031200;28;20470;-55
2023/08/31 00:38:10;;;;;;;2.38;1.92;;;21.40;99.90;;;;;;5025727;28;20478;-49
2023/08/31 00:40:40;;;;;;;2.30;2.13;;;21.40;99.90;;;;;;5029403;28;20665;-50
2023/08/31 00:43:08;;;;;;;2.28;2.08;;;21.40;99.90;;;;;;5031277;28;20501;-51
2023/08/31 00:45:35;;;;;;;1.87;1.77;;;21.40;99.90;;;;;;5027843;28;20619;-49
2023/08/31 00:48:04;;;;;;;1.90;1.70;;;21.40;99.90;;;;;;5030296;28;20470;-48
2023/08/31 00:50:31;;;;;;;2.13;2.03;;;21.30;99.90;;;;;;5030428;28;20260;-53
2023/08/31 00:52:58;;;;;;;1.90;1.70;;;21.40;99.90;;;;;;5030655;28;20213;-53
2023/08/31 00:55:26;;;;;;;1.97;1.70;;;21.30;99.90;;;;;;5029241;28;20450;-52
2023/08/31 00:57:53;;;;;;;2.20;1.80;;;21.30;99.90;;;;;;5027441;28;20824;-51
2023/08/31 01:00:21;;;;;;;2.17;1.97;;;21.30;99.90;;;;;;5028647;28;20456;-50
2023/08/31 01:02:58;;;;;;;1.60;1.50;;;21.30;99.90;;;;;;5025743;28;20467;-51
2023/08/31 01:05:42;;;;;;;2.03;1.83;;;21.30;99.90;;;;;;5023429;28;22057;-52
2023/08/31 01:08:19;;;;;;;2.20;2.00;;;21.30;99.90;;;;;;5027655;28;20208;-53
2023/08/31 01:10:56;;;;;;;1.80;1.70;;;21.30;99.90;;;;;;5026962;28;20537;-49
2023/08/31 01:13:25;;;;;;;1.80;1.57;;;21.30;99.90;;;;;;5023175;28;20586;-50
2023/08/31 01:15:57;;;;;;;2.30;2.10;;;21.30;99.90;;;;;;5024439;28;20472;-50
2023/08/31 01:18:25;;;;;;;2.20;2.03;;;21.30;99.90;;;;;;5030472;28;20486;-54
2023/08/31 01:21:01;;;;;;;1.70;1.60;;;21.30;99.90;;;;;;5027938;28;20521;-53
2023/08/31 01:23:35;;;;;;;1.65;1.48;;;21.30;99.90;;;;;;5027339;28;20856;-52
2023/08/31 01:26:03;;;;;;;2.10;1.98;;;21.30;99.90;;;;;;5025575;28;20200;-54
2023/08/31 01:28:31;;;;;;;2.50;1.80;;;21.30;99.90;;;;;;5028214;28;20200;-51
2023/08/31 01:30:58;;;;;;;1.60;1.43;;;21.30;99.90;;;;;;5026558;28;20472;-49
2023/08/31 01:33:24;;;;;;;1.60;1.50;;;21.30;99.90;;;;;;5026789;28;20489;-52
2023/08/31 01:35:54;;;;;;;2.27;2.07;;;21.30;99.90;;;;;;5031846;28;20474;-49
2023/08/31 01:38:28;;;;;;;2.03;1.93;;;21.30;99.90;;;;;;5029921;28;20481;-54
2023/08/31 01:40:59;;;;;;;1.60;1.50;;;21.30;99.90;;;;;;5029927;28;20454;-51
2023/08/31 01:43:28;;;;;;;2.33;2.13;;;21.30;99.90;;;;;;5030907;28;20473;-54
2023/08/31 01:45:55;;;;;;;2.00;1.80;;;21.30;99.90;;;;;;5030173;28;20465;-48
2023/08/31 01:48:22;;;;;;;1.83;1.73;;;21.30;99.90;;;;;;5034894;28;20469;-48
2023/08/31 01:50:49;;;;;;;2.23;2.03;;;21.30;99.90;;;;;;5032438;28;20460;-53
2023/08/31 01:53:15;;;;;;;1.77;1.67;;;21.30;99.90;;;;;;5027877;28;20475;-49
2023/08/31 01:55:42;;;;;;;1.80;1.70;;;21.30;99.90;;;;;;5025175;28;21178;-54
2023/08/31 01:58:09;;;;;;;2.03;1.83;;;21.30;99.90;;;;;;5029410;28;20510;-50
2023/08/31 02:00:38;;;;;;;2.13;1.80;;;21.30;99.90;;;;;;5026315;28;20783;-51
2023/08/31 02:03:06;;;;;;;1.90;1.70;;;21.30;99.90;;;;;;5028131;28;20467;-54
2023/08/31 02:05:32;;;;;;;2.00;1.80;;;21.30;99.90;;;;;;5027237;28;20587;-51
2023/08/31 02:07:59;;;;;;;2.30;1.70;;;21.30;99.90;;;;;;5027511;28;20474;-51
2023/08/31 02:10:27;;;;;;;1.85;1.70;;;21.30;99.90;;;;;;5027783;28;20468;-53
2023/08/31 02:12:53;;;;;;;2.07;1.87;;;21.30;99.90;;;;;;5025721;28;20576;-49
2023/08/31 02:15:20;;;;;;;1.70;1.60;;;21.30;99.90;;;;;;5025773;28;20472;-52
2023/08/31 02:17:48;;;;;;;1.70;1.60;;;21.30;99.90;;;;;;5025808;28;20480;-56
2023/08/31 02:20:15;;;;;;;2.00;1.73;;;21.30;99.90;;;;;;5020489;28;20782;-55
2023/08/31 02:22:42;;;;;;;2.27;2.07;;;21.30;99.90;;;;;;5022557;28;20657;-53
2023/08/31 02:25:09;;;;;;;1.50;1.40;;;21.30;99.90;;;;;;5025649;28;20965;-56
2023/08/31 02:27:35;;;;;;;1.90;1.80;;;21.30;99.90;;;;;;5028402;28;20217;-55
2023/08/31 02:30:04;;;;;;;1.70;1.60;;;21.30;99.90;;;;;;5031648;28;20465;-56
2023/08/31 02:32:31;;;;;;;1.67;1.57;;;21.30;99.90;;;;;;5023492;28;20994;-54
2023/08/31 02:34:59;;;;;;;1.77;1.67;;;21.30;99.90;;;;;;5028282;28;20457;-53
2023/08/31 02:37:26;;;;;;;1.50;1.40;;;21.20;99.90;;;;;;5025208;28;20556;-51
2023/08/31 02:39:52;;;;;;;1.60;1.50;;;21.30;99.90;;;;;;5029824;28;20482;-48
2023/08/31 02:42:19;;;;;;;1.70;1.45;;;21.30;99.90;;;;;;5026700;28;20466;-51
2023/08/31 02:44:46;;;;;;;3.03;1.60;;;21.30;99.90;;;;;;5026418;28;20195;-55
2023/08/31 02:47:12;;;;;;;1.80;1.70;;;21.30;99.90;;;;;;5028608;28;20453;-54
2023/08/31 02:49:39;;;;;;;2.10;1.90;;;21.20;99.90;;;;;;5029752;28;20467;-51
2023/08/31 02:52:07;;;;;;;1.83;1.73;;;21.20;99.90;;;;;;5030871;28;20825;-49
2023/08/31 02:54:34;;;;;;;1.60;1.43;;;21.30;99.90;;;;;;5028131;28;21052;-58
2023/08/31 02:57:02;;;;;;;2.27;1.90;;;21.30;99.90;;;;;;5033533;28;20474;-51
2023/08/31 02:59:28;;;;;;;1.70;1.60;;;21.20;99.90;;;;;;5037315;28;20580;-54
2023/08/31 03:01:55;;;;;;;1.40;1.23;;;21.30;99.90;;;;;;5031712;28;20462;-58
2023/08/31 03:04:22;;;;;;;1.60;1.50;;;21.20;99.90;;;;;;5033097;28;20473;-52
2023/08/31 03:06:48;;;;;;;1.83;1.70;;;21.20;99.90;;;;;;5031371;28;20462;-49
2023/08/31 03:09:17;;;;;;;1.60;1.50;;;21.30;99.90;;;;;;5022500;28;20470;-55
2023/08/31 03:11:43;;;;;;;1.60;1.50;;;21.20;99.90;;;;;;5022264;28;20454;-50
2023/08/31 03:14:10;;;;;;;1.63;1.50;;;21.20;99.90;;;;;;5019962;28;20577;-53
2023/08/31 03:16:37;;;;;;;1.93;1.73;;;21.20;99.90;;;;;;5021786;28;20457;-49
2023/08/31 03:19:04;;;;;;;1.70;1.57;;;21.20;99.90;;;;;;5026123;28;20814;-51
2023/08/31 03:21:31;;;;;;;1.80;1.70;;;21.20;99.90;;;;;;5025796;28;20983;-52
2023/08/31 03:23:57;;;;;;;1.77;1.63;;;21.20;99.90;;;;;;5021662;28;20484;-52
2023/08/31 03:26:25;;;;;;;2.07;1.70;;;21.20;99.90;;;;;;5020876;28;20468;-51
2023/08/31 03:28:52;;;;;;;1.40;1.30;;;21.20;99.90;;;;;;5025630;28;20434;-48
2023/08/31 03:31:19;;;;;;;1.42;1.20;;;21.20;99.90;;;;;;5021458;28;20197;-51
2023/08/31 03:33:45;;;;;;;2.15;1.95;;;21.20;99.90;;;;;;5028576;28;20197;-56
2023/08/31 03:36:12;;;;;;;2.30;2.10;;;21.20;99.90;;;;;;5026387;28;20203;-57
2023/08/31 03:38:39;;;;;;;2.03;1.70;;;21.20;99.90;;;;;;5027232;28;20490;-57
2023/08/31 03:41:06;;;;;;;2.57;1.90;;;21.20;99.90;;;;;;5032540;28;20813;-51
2023/08/31 03:43:34;;;;;;;1.50;1.40;;;21.20;99.90;;;;;;5032100;28;20541;-52
2023/08/31 03:46:02;;;;;;;1.40;1.20;;;21.20;99.90;;;;;;5025521;28;20459;-52
2023/08/31 03:48:29;;;;;;;1.83;1.63;;;21.20;99.90;;;;;;5025681;28;20475;-57
2023/08/31 03:50:56;;;;;;;1.90;1.73;;;21.20;99.90;;;;;;5022630;28;20470;-53
2023/08/31 03:53:23;;;;;;;1.70;1.60;;;21.20;99.90;;;;;;5025756;28;20451;-48
2023/08/31 03:55:50;;;;;;;2.20;2.00;;;21.20;99.90;;;;;;5028151;28;20207;-50
2023/08/31 03:58:17;;;;;;;2.20;1.80;;;21.20;99.90;;;;;;5028802;28;20541;-51
2023/08/31 04:00:45;;;;;;;1.40;1.17;;;21.20;99.90;;;;;;5024993;28;20537;-52
2023/08/31 04:03:12;;;;;;;1.70;1.50;;;21.20;99.90;;;;;;5034809;28;20466;-50
2023/08/31 04:05:39;;;;;;;1.83;1.67;;;21.20;99.90;;;;;;5032691;28;20477;-51
2023/08/31 04:08:06;;;;;;;2.10;1.90;;;21.20;99.90;;;;;;5028389;28;20463;-50
2023/08/31 04:10:33;;;;;;;2.00;1.80;;;21.20;99.90;;;;;;5027998;28;20461;-51
2023/08/31 04:13:00;;;;;;;1.67;1.57;;;21.20;99.90;;;;;;5029665;28;20384;-52
2023/08/31 04:15:26;;;;;;;1.63;1.50;;;21.20;99.90;;;;;;5030751;28;20461;-56
2023/08/31 04:17:54;;;;;;;1.90;1.80;;;21.20;99.90;;;;;;5028021;28;20477;-53
2023/08/31 04:20:21;;;;;;;1.60;1.50;;;21.20;99.90;;;;;;5022624;28;20462;-50
2023/08/31 04:22:47;;;;;;;1.80;1.70;;;21.20;99.90;;;;;;5029941;28;20484;-55
2023/08/31 04:25:15;;;;;;;1.40;1.30;;;21.20;99.90;;;;;;5034305;28;20458;-52
2023/08/31 04:27:43;;;;;;;1.70;1.60;;;21.20;99.90;;;;;;5027785;28;20452;-53
2023/08/31 04:30:10;;;;;;;1.60;1.50;;;21.20;99.90;;;;;;5024794;28;20285;-54
2023/08/31 04:32:37;;;;;;;2.00;1.83;;;21.10;99.90;;;;;;5028630;28;20552;-52
2023/08/31 04:35:06;;;;;;;1.40;1.30;;;21.20;99.90;;;;;;5028418;28;20462;-56
2023/08/31 04:37:33;;;;;;;2.10;1.60;;;21.10;99.90;;;;;;5028157;28;20450;-53
2023/08/31 04:40:00;;;;;;;2.00;1.83;;;21.10;99.90;;;;;;5028935;28;20496;-51
2023/08/31 04:42:26;;;;;;;1.70;1.60;;;21.10;99.90;;;;;;5028664;28;20454;-51
2023/08/31 04:44:53;;;;;;;1.90;1.80;;;21.20;99.90;;;;;;5030825;28;20465;-54
2023/08/31 04:47:20;;;;;;;1.73;1.63;;;21.20;99.90;;;;;;5022933;28;20467;-51
2023/08/31 04:49:47;;;;;;;1.87;1.77;;;21.10;99.90;;;;;;5031158;28;20473;-52
2023/08/31 04:52:14;;;;;;;1.60;1.30;;;21.10;99.90;;;;;;5028805;28;20869;-51
2023/08/31 04:54:41;;;;;;;1.60;1.50;;;21.10;99.90;;;;;;5032251;28;20487;-51
2023/08/31 04:57:08;;;;;;;1.80;1.40;;;21.10;99.90;;;;;;5025245;28;20468;-57
2023/08/31 04:59:35;;;;;;;1.30;1.20;;;21.10;99.90;;;;;;5031825;28;20493;-50
2023/08/31 05:02:01;;;;;;;1.97;1.77;;;21.20;99.90;;;;;;5026393;28;20475;-50
2023/08/31 05:04:30;;;;;;;2.20;2.00;;;21.10;99.90;;;;;;5027424;28;20509;-53
2023/08/31 05:06:57;;;;;;;1.98;1.88;;;21.10;99.90;;;;;;5025879;28;20503;-57
2023/08/31 05:09:26;;;;;;;2.27;2.07;;;21.10;99.90;;;;;;5028872;28;20203;-48
2023/08/31 05:11:53;;;;;;;1.50;1.40;;;21.10;99.90;;;;;;5032937;28;20469;-48
2023/08/31 05:14:19;;;;;;;2.00;1.80;;;21.10;99.90;;;;;;5032460;28;20436;-51
2023/08/31 05:16:47;;;;;;;1.50;1.30;;;21.10;99.90;;;;;;5029251;28;21101;-53
2023/08/31 05:19:13;;;;;;;1.63;1.52;;;21.10;99.90;;;;;;5025490;28;20558;-52
2023/08/31 05:21:40;;;;;;;2.40;1.70;;;21.10;99.90;;;;;;5025488;28;20191;-52
2023/08/31 05:24:07;;;;;;;1.75;1.65;;;21.10;99.90;;;;;;5028598;28;20463;-55
2023/08/31 05:26:35;;;;;;;2.03;1.83;;;21.10;99.90;;;;;;5036916;28;20195;-58
2023/08/31 05:29:03;;;;;;;2.10;1.90;;;21.10;99.90;;;;;;5034491;28;20646;-50
2023/08/31 05:31:30;;;;;;;1.67;1.57;;;21.10;99.90;;;;;;5033336;28;20215;-52
2023/08/31 05:33:57;;;;;;;1.97;1.70;;;21.10;99.90;;;;;;5035112;28;20461;-53
2023/08/31 05:36:24;;;;;;;1.57;1.43;;;21.10;99.90;;;;;;5030017;28;20454;-51
2023/08/31 05:38:52;;;;;;;1.53;1.40;;;21.10;99.90;;;;;;5029995;28;20467;-51
2023/08/31 05:41:18;;;;;;;1.43;1.30;;;21.10;99.90;;;;;;5032320;28;21036;-49
2023/08/31 05:43:46;;;;;;;2.90;1.90;;;21.10;99.90;;;;;;5033983;28;20497;-51
2023/08/31 05:46:13;;;;;;;1.63;1.20;;;21.10;99.90;;;;;;5024729;28;20668;-50
2023/08/31 05:48:40;;;;;;;1.67;1.57;;;21.10;99.90;;;;;;5025237;28;20472;-53
2023/08/31 05:51:07;;;;;;;1.70;1.60;;;21.10;99.90;;;;;;5023688;28;21021;-50
2023/08/31 05:53:34;;;;;;;1.70;1.60;;;21.10;99.90;;;;;;5026734;28;21075;-49
2023/08/31 05:56:04;;;;;;;2.05;1.85;;;21.10;99.90;;;;;;5032339;28;20456;-53
2023/08/31 05:58:32;;;;;;;1.83;1.70;;;21.10;99.90;;;;;;5027377;28;20214;-52
2023/08/31 06:01:00;;;;;;;1.90;1.70;;;21.10;99.90;;;;;;5024521;28;20631;-50
2023/08/31 06:03:27;;;;;;;1.70;1.60;;;21.10;99.90;;;;;;5031283;28;20462;-54
2023/08/31 06:05:54;;;;;;;1.60;1.50;;;21.10;99.90;;;;;;5022118;28;20569;-51
2023/08/31 06:08:21;;;;;;;1.80;1.70;;;21.10;99.90;;;;;;5022822;28;20199;-55
2023/08/31 06:10:47;;;;;;;1.60;1.40;;;21.10;99.90;;;;;;5028533;28;20464;-53
2023/08/31 06:13:14;;;;;;;1.63;1.53;;;21.10;99.90;;;;;;5032284;28;20461;-51
2023/08/31 06:15:41;;;;;;;1.67;1.57;;;21.10;99.90;;;;;;5030203;28;20465;-52
2023/08/31 06:18:09;;;;;;;2.57;1.87;;;21.10;99.90;;;;;;5028388;28;20472;-52
2023/08/31 06:20:36;;;;;;;1.77;1.67;;;21.10;99.90;;;;;;5026237;28;20463;-55
2023/08/31 06:23:03;;;;;;;1.73;1.63;;;21.10;99.90;;;;;;5029639;28;21310;-50
2023/08/31 06:25:30;;;;;;;1.33;1.20;;;21.10;99.90;;;;;;5031445;28;20485;-56
2023/08/31 06:27:57;;;;;;;2.00;1.50;;;21.10;99.90;;;;;;5027446;28;20480;-48
2023/08/31 06:30:24;;;;;;;1.57;1.43;;;21.10;99.90;;;;;;5031115;28;20476;-50
2023/08/31 06:32:50;;;;;;;1.60;1.50;;;21.10;99.90;;;;;;5029764;28;20541;-50
2023/08/31 06:35:19;;;;;;;1.70;1.43;;;21.10;99.90;;;;;;5028455;28;20543;-55
2023/08/31 06:37:46;;;;;;;1.73;1.43;;;21.10;99.90;;;;;;5025023;28;20456;-58
2023/08/31 06:40:13;;;;;;;1.40;1.30;;;21.10;99.90;;;;;;5027705;28;20488;-54
2023/08/31 06:42:40;;;;;;;2.53;1.37;;;21.10;99.90;;;;;;5031531;28;20460;-52
2023/08/31 06:45:09;;;;;;;1.87;1.63;;;21.10;99.90;;;;;;5026464;28;20453;-55
2023/08/31 06:47:35;;;;;;;2.63;2.00;;;21.10;99.90;;;;;;5026431;28;20508;-55
2023/08/31 06:50:03;;;;;;;1.63;1.30;;;21.10;99.90;;;;;;5029811;28;20457;-54
2023/08/31 06:52:31;;;;;;;1.50;1.40;;;21.10;99.90;;;;;;5030810;28;20800;-54
2023/08/31 06:54:58;;;;;;;2.10;1.33;;;21.10;99.90;;;;;;5030353;28;20475;-55
2023/08/31 06:57:25;;;;;;;1.40;1.30;;;21.10;99.90;;;;;;5023058;28;20469;-51
2023/08/31 06:59:52;;;;;;;1.47;1.37;;;21.10;99.90;;;;;;5026972;28;20953;-53
2023/08/31 07:02:20;;;;;;;1.47;1.37;;;21.10;99.90;;;;;;5025771;28;20477;-53
2023/08/31 07:04:47;;;;;;;2.92;1.65;;;21.10;99.90;;;;;;5019906;28;20675;-49
2023/08/31 07:07:14;;;;;;;1.80;1.70;;;21.10;99.90;;;;;;5025876;28;20211;-52
2023/08/31 07:09:43;;;;;;;1.77;1.67;;;21.10;99.90;;;;;;5029263;28;20208;-56
2023/08/31 07:12:10;;;;;;;1.40;1.30;;;21.10;99.90;;;;;;5032881;28;20463;-52
2023/08/31 07:14:37;;;;;;;1.80;1.40;;;21.10;99.90;;;;;;5023069;28;20985;-51
2023/08/31 07:17:04;;;;;;;1.30;1.20;;;21.10;99.90;;;;;;5025157;28;20458;-58
2023/08/31 07:19:31;;;;;;;1.73;1.50;;;21.10;99.90;;;;;;5028200;28;20484;-54
2023/08/31 07:21:59;;;;;;;1.70;1.40;;;21.10;99.90;;;;;;5024337;28;20541;-60
2023/08/31 07:24:26;;;;;;;1.80;1.67;;;21.10;99.90;;;;;;5031649;28;20828;-54
2023/08/31 07:26:54;;;;;;;1.40;1.20;;;21.10;99.90;;;;;;5025328;28;20961;-55
2023/08/31 07:29:21;;;;;;;1.33;1.20;;;21.10;99.90;;;;;;5018551;28;20453;-55
2023/08/31 07:31:47;;;;;;;1.40;1.30;;;21.10;99.90;;;;;;5025531;28;20453;-56
2023/08/31 07:34:14;;;;;;;1.47;1.33;;;21.10;99.90;;;;;;5026293;28;20465;-53
2023/08/31 07:36:42;;;;;;;1.60;1.40;;;21.10;99.90;;;;;;5021735;28;20470;-57
2023/08/31 07:39:08;;;;;;;1.33;1.20;;;21.10;99.90;;;;;;5023433;28;20576;-55
2023/08/31 07:41:35;;;;;;;1.50;1.40;;;21.10;99.90;;;;;;5026176;28;20899;-57
2023/08/31 07:44:03;;;;;;;1.40;1.30;;;21.10;99.90;;;;;;5026071;28;20466;-57
2023/08/31 07:46:30;;;;;;;1.57;1.47;;;21.10;99.90;;;;;;5022566;28;20457;-56
2023/08/31 07:48:57;;;;;;;3.03;2.73;;;21.10;99.90;;;;;;5019034;28;20469;-57
2023/08/31 07:51:25;;;;;;;4.87;3.40;;;21.10;99.90;;;;;;5021724;28;20461;-57
2023/08/31 07:53:52;;;;;;;7.03;2.93;;;21.10;99.90;;;;;;5031347;28;20458;-50
2023/08/31 07:56:19;;;;;;;4.73;3.60;;;21.10;99.90;;;;;;5028547;28;20478;-53
2023/08/31 07:58:45;;;;;;;4.60;3.13;;;21.00;99.90;;;;;;5023689;28;20457;-53
2023/08/31 08:01:13;;;;;;;5.03;3.27;;;21.00;99.90;;;;;;5033292;28;20509;-56
2023/08/31 08:03:40;;;;;;;3.03;2.57;;;21.00;99.90;;;;;;5024548;28;20476;-55
2023/08/31 08:06:08;;;;;;;3.80;2.87;;;21.00;99.90;;;;;;5019463;28;20926;-56
2023/08/31 08:08:35;;;;;;;4.87;2.57;;;21.00;99.90;;;;;;5028525;28;20987;-54
2023/08/31 08:11:02;;;;;;;3.73;1.80;;;21.00;99.90;;;;;;5028823;28;20476;-54
2023/08/31 08:13:29;;;;;;;8.53;3.00;;;21.00;99.90;;;;;;5027934;28;20455;-51
2023/08/31 08:15:55;;;;;;;3.20;2.40;;;21.00;99.90;;;;;;5033657;28;20458;-50
2023/08/31 08:18:23;;;;;;;3.40;2.37;;;21.00;99.90;;;;;;5032060;28;20805;-55
2023/08/31 08:20:51;;;;;;;5.40;2.97;;;21.00;99.90;;;;;;5031077;28;20484;-53
2023/08/31 08:23:18;;;;;;;6.13;2.63;;;21.00;99.90;;;;;;5026246;28;20465;-50
2023/08/31 08:25:45;;;;;;;3.30;2.22;;;21.00;99.90;;;;;;5024344;28;20779;-52
2023/08/31 08:28:11;;;;;;;5.00;2.72;;;21.00;99.90;;;;;;5032278;28;20742;-49
2023/08/31 08:30:38;;;;;;;6.20;2.20;;;21.00;99.90;;;;;;5034191;28;20198;-55
2023/08/31 08:33:05;;;;;;;3.45;2.00;;;21.00;99.90;;;;;;5036318;28;20810;-56
2023/08/31 08:35:33;;;;;;;4.82;2.10;;;21.00;99.90;;;;;;5031973;28;20562;-56
2023/08/31 08:38:00;;;;;;;2.60;2.40;;;21.00;99.90;;;;;;5032325;28;20195;-50
2023/08/31 08:40:27;;;;;;;3.33;2.60;;;21.00;99.90;;;;;;5030568;28;20241;-52
2023/08/31 08:42:54;;;;;;;2.50;2.00;;;21.00;99.90;;;;;;5033682;28;20654;-54
2023/08/31 08:45:25;;;;;;;4.47;2.60;;;21.00;99.90;;;;;;5030042;28;20490;-53
2023/08/31 08:47:53;;;;;;;6.30;2.50;;;21.00;99.90;;;;;;5030844;28;20555;-54
2023/08/31 08:50:23;;;;;;;3.60;2.30;;;21.00;99.90;;;;;;5034438;28;20202;-52
2023/08/31 08:52:52;;;;;;;3.53;2.07;;;21.00;99.90;;;;;;5033194;28;20878;-53
2023/08/31 08:55:20;;;;;;;3.23;1.97;;;21.00;99.90;;;;;;5028380;28;20465;-56
2023/08/31 08:57:47;;;;;;;3.40;2.17;;;21.00;99.90;;;;;;5028425;28;21026;-51
2023/08/31 09:00:15;;;;;;;2.60;1.80;;;21.00;99.90;;;;;;5033112;28;20484;-47
2023/08/31 09:02:42;;;;;;;2.00;1.70;;;20.90;99.90;;;;;;5026299;28;20234;-52
2023/08/31 09:05:09;;;;;;;4.37;2.80;;;21.00;99.90;;;;;;5027575;28;20589;-52
2023/08/31 09:07:37;;;;;;;3.40;2.13;;;21.00;99.90;;;;;;5021669;28;20462;-51
2023/08/31 09:10:06;;;;;;;2.97;2.07;;;21.00;99.90;;;;;;5022896;28;20583;-55
2023/08/31 09:12:37;;;;;;;4.28;2.20;;;20.90;99.90;;;;;;5020870;28;20878;-51
2023/08/31 09:15:05;;;;;;;2.60;2.13;;;21.00;99.90;;;;;;5021852;28;20648;-56
2023/08/31 09:17:40;;;;;;;3.50;1.87;;;21.00;99.90;;;;;;5024717;28;20536;-56
2023/08/31 09:20:09;;;;;;;2.97;1.83;;;21.00;99.90;;;;;;5023149;28;20571;-57
2023/08/31 09:22:35;;;;;;;3.37;1.93;;;21.00;99.90;;;;;;5020199;28;20461;-58
2023/08/31 09:25:03;;;;;;;5.28;2.90;;;21.00;99.90;;;;;;5016698;28;20472;-54
2023/08/31 09:27:33;;;;;;;2.72;2.47;;;21.00;99.90;;;;;;5015087;28;20244;-54
2023/08/31 09:29:59;;;;;;;4.55;2.50;;;21.00;99.90;;;;;;5029779;28;20615;-53
2023/08/31 09:32:26;;;;;;;3.55;2.20;;;20.90;99.90;;;;;;5026846;28;20191;-56
2023/08/31 09:34:53;;;;;;;3.33;2.45;;;21.00;99.90;;;;;;5030047;28;20200;-55
2023/08/31 09:37:19;;;;;;;3.28;2.13;;;20.90;99.90;;;;;;5025915;28;20197;-51
2023/08/31 09:39:46;;;;;;;3.70;2.00;;;20.90;99.90;;;;;;5033245;28;20781;-56
2023/08/31 09:42:13;;;;;;;3.53;2.05;;;20.90;99.90;;;;;;5024628;28;20472;-55
2023/08/31 09:44:46;;;;;;;3.95;1.70;;;21.00;99.90;;;;;;5028617;28;20195;-55
2023/08/31 09:47:14;;;;;;;2.95;2.30;;;21.00;99.90;;;;;;5026574;28;20207;-52
2023/08/31 09:49:43;;;;;;;2.83;2.20;;;21.00;99.90;;;;;;5030658;28;20199;-55
2023/08/31 09:52:09;;;;;;;3.20;2.27;;;20.90;99.90;;;;;;5025900;28;20220;-51
2023/08/31 09:54:37;;;;;;;3.78;1.95;;;20.90;99.90;;;;;;5025344;28;21044;-51
2023/08/31 09:57:05;;;;;;;3.00;1.63;;;20.90;99.90;;;;;;5019973;28;20194;-55
2023/08/31 09:59:33;;;;;;;2.22;2.00;;;20.90;99.90;;;;;;5030222;28;20229;-55
2023/08/31 10:02:02;;;;;;;3.75;2.20;;;20.90;99.90;;;;;;5028344;28;20196;-56
2023/08/31 10:04:32;;;;;;;6.45;2.08;;;20.90;99.90;;;;;;5023464;28;20256;-56
2023/08/31 10:06:59;;;;;;;3.60;1.70;;;20.90;99.90;;;;;;5027999;28;20567;-55
2023/08/31 10:09:26;;;;;;;3.95;2.03;;;20.90;99.90;;;;;;5027912;28;20196;-57
2023/08/31 10:11:53;;;;;;;4.40;2.38;;;20.90;99.90;;;;;;5026970;28;20208;-58
2023/08/31 10:14:21;;;;;;;4.43;1.90;;;20.90;99.90;;;;;;5032696;28;20202;-55
2023/08/31 10:16:52;;;;;;;5.85;2.20;;;20.90;99.90;;;;;;5029881;28;20566;-53
2023/08/31 10:19:20;;;;;;;2.83;2.13;;;20.90;99.90;;;;;;5030917;28;20786;-53
2023/08/31 10:21:47;;;;;;;3.80;1.85;;;20.90;99.90;;;;;;5027740;28;20238;-56
2023/08/31 10:24:14;;;;;;;3.78;1.83;;;20.90;99.90;;;;;;5030919;28;20642;-53
2023/08/31 10:26:41;;;;;;;3.45;1.90;;;20.90;99.90;;;;;;5026121;28;20199;-52
2023/08/31 10:29:27;;;;;;;3.90;2.40;;;20.90;99.90;;;;;;5035897;28;20206;-54
2023/08/31 10:31:53;;;;;;;4.15;1.90;;;20.90;99.90;;;;;;5035834;28;20332;-52
2023/08/31 10:34:35;;;;;;;4.10;2.00;;;20.90;99.90;;;;;;5035309;28;20202;-55
2023/08/31 10:37:03;;;;;;;5.90;1.67;;;20.90;99.90;;;;;;5032629;28;20202;-53
2023/08/31 10:39:38;;;;;;;3.95;1.65;;;20.90;99.90;;;;;;5033833;28;20862;-55
2023/08/31 10:42:05;;;;;;;3.33;2.20;;;20.90;99.90;;;;;;5023874;28;20196;-59
2023/08/31 10:44:32;;;;;;;7.30;2.55;;;20.90;99.90;;;;;;5032708;28;20654;-54
2023/08/31 10:47:03;;;;;;;3.47;1.58;;;20.90;99.90;;;;;;5033624;28;20280;-51
2023/08/31 10:49:32;;;;;;;4.30;1.97;;;20.90;99.90;;;;;;5033227;28;20205;-52
2023/08/31 10:52:17;;;;;;;6.57;1.90;;;20.90;99.90;;;;;;5032762;28;20945;-55
2023/08/31 10:54:44;;;;;;;5.93;3.60;;;20.90;99.90;;;;;;5027239;28;20458;-56
2023/08/31 10:57:12;;;;;;;5.60;1.25;;;20.90;99.90;;;;;;5028416;28;20466;-54
2023/08/31 10:59:47;;;;;;;4.32;1.70;;;20.90;99.90;;;;;;5032983;28;20785;-50
2023/08/31 11:02:32;;;;;;;3.65;1.70;;;20.90;99.90;;;;;;5024738;28;24228;-55
2023/08/31 11:05:06;;;;;;;2.85;1.85;;;20.90;99.90;;;;;;5034216;28;20202;-55
2023/08/31 11:07:34;;;;;;;5.87;1.87;;;20.90;99.90;;;;;;5033626;28;20194;-53
2023/08/31 11:10:09;;;;;;;5.10;1.70;;;20.90;99.90;;;;;;5033557;28;20465;-55
2023/08/31 11:12:36;;;;;;;4.60;1.83;;;20.90;99.90;;;;;;5022603;28;21218;-53
2023/08/31 11:15:04;;;;;;;2.05;1.80;;;20.90;99.90;;;;;;5022328;28;20545;-54
2023/08/31 11:17:32;;;;;;;2.83;1.38;;;20.90;99.90;;;;;;5020618;28;22538;-57
2023/08/31 11:19:59;;;;;;;1.60;1.50;;;20.90;99.90;;;;;;5020833;28;20228;-55
2023/08/31 11:22:27;;;;;;;3.27;1.83;;;20.90;99.90;;;;;;5021643;28;20532;-55
2023/08/31 11:24:54;;;;;;;2.10;1.40;;;20.90;99.90;;;;;;5027882;28;20481;-55
2023/08/31 11:27:21;;;;;;;6.40;1.53;;;20.80;99.90;;;;;;5020419;28;20547;-55
2023/08/31 11:29:48;;;;;;;9.17;1.57;;;20.80;99.90;;;;;;5021716;28;20458;-56
2023/08/31 11:32:15;;;;;;;6.30;1.60;;;20.80;99.90;;;;;;5025482;28;20465;-53
2023/08/31 11:34:43;;;;;;;2.65;1.50;;;20.80;99.90;;;;;;5027400;28;20817;-56
2023/08/31 11:37:10;;;;;;;3.05;1.50;;;20.80;99.90;;;;;;5026751;28;20690;-58
2023/08/31 11:39:40;;;;;;;3.83;1.80;;;20.80;99.90;;;;;;5021636;28;20199;-55
2023/08/31 11:42:07;;;;;;;2.78;1.63;;;20.80;99.90;;;;;;5021802;28;20505;-59
2023/08/31 11:44:33;;;;;;;1.70;1.10;;;20.80;99.90;;;;;;5024081;28;20923;-52
2023/08/31 11:47:00;;;;;;;2.33;1.60;;;20.80;99.90;;;;;;5022722;28;21047;-55
2023/08/31 11:49:28;;;;;;;3.13;1.60;;;20.80;99.90;;;;;;5019996;28;20802;-51
2023/08/31 11:51:55;;;;;;;2.87;1.30;;;20.80;99.90;;;;;;5029535;28;20719;-56
2023/08/31 11:54:25;;;;;;;2.90;1.38;;;20.80;99.90;;;;;;5032501;28;20486;-58
2023/08/31 11:56:53;;;;;;;2.70;1.35;;;20.80;99.90;;;;;;5030902;28;20191;-57
2023/08/31 11:59:21;;;;;;;3.20;1.70;;;20.80;99.90;;;;;;5033088;28;20543;-52
2023/08/31 12:01:49;;;;;;;2.80;1.53;;;20.80;99.90;;;;;;5029632;28;20873;-53
2023/08/31 12:04:17;;;;;;;4.55;1.45;;;20.80;99.90;;;;;;5025022;28;20469;-51
2023/08/31 12:06:47;;;;;;;2.37;1.67;;;20.80;99.90;;;;;;5022562;28;20195;-55
2023/08/31 12:09:14;;;;;;;1.83;1.48;;;20.90;99.90;;;;;;5030872;28;20481;-51
2023/08/31 12:11:41;;;;;;;2.73;1.70;;;20.80;99.90;;;;;;5029761;28;20550;-57
2023/08/31 12:14:21;;;;;;;3.43;1.47;;;20.80;99.90;;;;;;5032766;28;20457;-52
2023/08/31 12:16:48;;;;;;;2.60;1.83;;;20.90;99.90;;;;;;5026803;28;20453;-58
2023/08/31 12:19:15;;;;;;;3.07;2.00;;;20.90;99.90;;;;;;5028860;28;20464;-56
2023/08/31 12:21:43;;;;;;;4.03;1.43;;;20.80;99.90;;;;;;5031646;28;20492;-52
2023/08/31 12:24:10;;;;;;;1.70;1.33;;;20.80;99.90;;;;;;5030984;28;20452;-55
2023/08/31 12:26:37;;;;;;;3.50;2.05;;;20.90;99.90;;;;;;5027297;28;21495;-54
2023/08/31 12:29:05;;;;;;;3.90;1.70;;;20.80;99.90;;;;;;5033440;28;20206;-53
2023/08/31 12:31:33;;;;;;;2.10;1.43;;;20.80;99.90;;;;;;5029019;28;20583;-54
2023/08/31 12:34:04;;;;;;;1.98;1.50;;;20.80;99.90;;;;;;5029570;28;20461;-52
2023/08/31 12:36:31;;;;;;;1.90;1.33;;;20.80;99.90;;;;;;5029774;28;20758;-53
2023/08/31 12:39:01;;;;;;;3.30;1.85;;;20.90;99.90;;;;;;5027042;28;20468;-57
2023/08/31 12:41:27;;;;;;;2.58;1.85;;;20.90;99.90;;;;;;5024094;28;20227;-57
2023/08/31 12:43:54;;;;;;;2.73;1.50;;;20.80;99.90;;;;;;5027212;28;20195;-53
2023/08/31 12:46:21;;;;;;;3.23;1.30;;;20.80;99.90;;;;;;5024384;28;20473;-55
2023/08/31 12:48:49;;;;;;;1.50;1.33;;;20.90;99.90;;;;;;5028917;28;20843;-60
2023/08/31 12:51:16;;;;;;;4.43;1.70;;;20.90;99.90;;;;;;5028537;28;20480;-55